createdAt,value
2023-03-12T00:03:12.462Z,-0.81
2023-03-12T00:08:14.170Z,-0.85
2023-03-12T00:13:15.773Z,-0.88
2023-03-12T00:18:17.994Z,-0.85
2023-03-12T00:23:19.601Z,-0.86
2023-03-12T00:28:21.210Z,-0.87
2023-03-12T00:33:22.834Z,-0.84
2023-03-12T00:38:24.434Z,-0.87
2023-03-12T00:43:26.077Z,-0.85
2023-03-12T00:48:27.735Z,-0.77
2023-03-12T00:53:29.356Z,-0.77
2023-03-12T00:58:31.291Z,-0.77
2023-03-12T01:03:33.317Z,-0.84
2023-03-12T01:08:35.243Z,-0.83
2023-03-12T01:13:36.857Z,-0.84
2023-03-12T01:18:39.286Z,-0.87
2023-03-12T01:23:40.901Z,-0.99
2023-03-12T01:28:42.661Z,-0.98
2023-03-12T01:33:45.634Z,-0.97
2023-03-12T01:38:47.744Z,-0.97
2023-03-12T01:43:49.712Z,-0.99
2023-03-12T01:48:56.675Z,-1.01
2023-03-12T01:54:02.710Z,-0.98
2023-03-12T01:59:13.605Z,-1.08
2023-03-12T02:04:18.208Z,-1.10
2023-03-12T02:09:21.595Z,-1.15
2023-03-12T02:14:23.981Z,-1.20
2023-03-12T02:19:50.264Z,-1.22
2023-03-12T02:25:24.928Z,-1.23
2023-03-12T02:30:29.962Z,-1.20
2023-03-12T02:35:32.248Z,-1.16
2023-03-12T02:40:39.096Z,-1.22
2023-03-12T02:45:40.825Z,-1.19
2023-03-12T02:50:42.802Z,-1.24
2023-03-12T02:55:44.498Z,-1.20
2023-03-12T03:00:46.406Z,-1.23
2023-03-12T03:05:48.150Z,-1.16
2023-03-12T03:10:51.822Z,-1.21
2023-03-12T03:15:54.204Z,-1.24
2023-03-12T03:21:07.798Z,-1.13
2023-03-12T03:26:10.118Z,-1.23
2023-03-12T03:31:12.572Z,-1.23
2023-03-12T03:36:16.001Z,-1.31
2023-03-12T03:41:33.032Z,-1.28
2023-03-12T03:46:38.130Z,-1.22
2023-03-12T03:51:43.150Z,-1.24
2023-03-12T03:56:48.180Z,-1.28
2023-03-12T04:01:50.135Z,-1.29
2023-03-12T04:06:51.862Z,-1.25
2023-03-12T04:11:53.584Z,-1.26
2023-03-12T04:16:55.317Z,-1.22
2023-03-12T04:21:57.298Z,-1.20
2023-03-12T04:26:59.368Z,-1.23
2023-03-12T04:32:01.221Z,-1.16
2023-03-12T04:37:03.654Z,-1.22
2023-03-12T04:42:06.490Z,-1.24
2023-03-12T04:47:08.564Z,-1.27
2023-03-12T04:52:10.263Z,-1.24
2023-03-12T04:57:12.147Z,-1.36
2023-03-12T05:02:13.909Z,-1.28
2023-03-12T05:07:16.585Z,-1.29
2023-03-12T05:12:18.453Z,-1.11
2023-03-12T05:17:20.305Z,-1.14
2023-03-12T05:22:21.944Z,-1.09
2023-03-12T05:27:26.140Z,-1.03
2023-03-12T05:32:29.784Z,-0.97
2023-03-12T05:37:31.519Z,-1.00
2023-03-12T05:42:34.467Z,-0.96
2023-03-12T05:47:36.607Z,-0.97
2023-03-12T05:52:38.614Z,-0.96
2023-03-12T05:57:40.506Z,-0.90
2023-03-12T06:02:42.702Z,-0.88
2023-03-12T06:07:45.084Z,-0.84
2023-03-12T06:12:46.802Z,-0.77
2023-03-12T06:17:48.708Z,-0.65
2023-03-12T06:22:50.494Z,-0.48
2023-03-12T06:27:52.204Z,-0.24
2023-03-12T06:32:54.549Z,0.00
2023-03-12T06:37:56.195Z,0.35
2023-03-12T06:42:57.933Z,0.33
2023-03-12T06:47:59.525Z,0.99
2023-03-12T06:53:01.111Z,0.61
2023-03-12T06:58:04.071Z,0.68
2023-03-12T07:03:05.834Z,0.61
2023-03-12T07:08:07.439Z,1.31
2023-03-12T07:13:09.187Z,0.64
2023-03-12T07:18:12.287Z,1.73
2023-03-12T07:23:14.503Z,1.10
2023-03-12T07:28:16.692Z,1.00
2023-03-12T07:33:20.272Z,1.89
2023-03-12T07:38:21.992Z,2.57
2023-03-12T07:43:25.189Z,4.30
2023-03-12T07:48:29.030Z,3.66
2023-03-12T07:53:30.659Z,3.30
2023-03-12T07:58:32.822Z,2.85
2023-03-12T08:03:34.712Z,3.59
2023-03-12T08:08:38.353Z,3.90
2023-03-12T08:13:40.063Z,4.95
2023-03-12T08:18:43.193Z,6.83
2023-03-12T08:23:44.923Z,6.62
2023-03-12T08:28:46.596Z,4.56
2023-03-12T08:33:48.274Z,3.49
2023-03-12T08:38:49.883Z,3.88
2023-03-12T08:43:51.486Z,3.74
2023-03-12T08:48:53.130Z,4.21
2023-03-12T08:53:54.750Z,4.03
2023-03-12T08:58:57.743Z,4.08
2023-03-12T09:03:59.397Z,4.35
2023-03-12T09:09:05.123Z,4.25
2023-03-12T09:14:57.977Z,4.55
2023-03-12T09:19:29.526Z,5.71
2023-03-12T09:24:31.214Z,6.44
2023-03-12T09:29:34.062Z,6.11
2023-03-12T09:34:35.701Z,6.35
2023-03-12T09:39:37.382Z,6.96
2023-03-12T09:44:43.753Z,6.67
2023-03-12T09:49:54.252Z,6.66
2023-03-12T09:55:02.456Z,6.10
2023-03-12T10:00:07.328Z,6.05
2023-03-12T10:05:42.043Z,6.00
2023-03-12T10:11:15.799Z,6.60
2023-03-12T10:16:42.955Z,6.60
2023-03-12T10:22:14.703Z,7.10
2023-03-12T10:27:17.741Z,7.71
2023-03-12T10:32:37.715Z,6.78
2023-03-12T10:37:46.841Z,6.81
2023-03-12T10:42:48.952Z,7.49
2023-03-12T10:47:57.244Z,8.51
2023-03-12T10:53:44.683Z,7.14
2023-03-12T10:58:49.118Z,7.81
2023-03-12T11:03:52.454Z,6.51
2023-03-12T11:09:16.968Z,7.30
2023-03-12T11:14:22.428Z,5.97
2023-03-12T11:19:33.831Z,7.24
2023-03-12T11:24:36.052Z,6.86
2023-03-12T11:29:43.507Z,7.17
2023-03-12T11:34:49.744Z,7.56
2023-03-12T11:39:55.421Z,8.08
2023-03-12T11:45:20.835Z,11.13
2023-03-12T11:50:56.082Z,10.54
2023-03-12T11:56:10.050Z,8.63
2023-03-12T12:01:57.192Z,13.10
2023-03-12T12:07:29.856Z,11.02
2023-03-12T12:12:52.486Z,9.09
2023-03-12T12:18:05.791Z,8.24
2023-03-12T12:23:33.846Z,8.94
2023-03-12T12:28:53.972Z,7.87
2023-03-12T12:34:23.128Z,7.66
2023-03-12T12:39:39.131Z,8.12
2023-03-12T12:44:51.324Z,7.25
2023-03-12T12:49:58.332Z,6.75
2023-03-12T12:55:41.234Z,6.68
2023-03-12T13:00:51.358Z,6.61
2023-03-12T13:05:52.949Z,6.78
2023-03-12T13:11:02.178Z,7.01
2023-03-12T13:16:33.717Z,6.86
2023-03-12T13:21:51.370Z,6.65
2023-03-12T13:27:02.281Z,6.56
2023-03-12T13:32:06.022Z,6.58
2023-03-12T13:37:20.487Z,6.60
2023-03-12T13:42:24.957Z,6.82
2023-03-12T13:47:30.424Z,6.61
2023-03-12T13:52:47.080Z,6.66
2023-03-12T13:57:56.882Z,6.57
2023-03-12T14:03:03.358Z,6.41
2023-03-12T14:08:22.028Z,6.53
2023-03-12T14:13:48.424Z,6.36
2023-03-12T14:18:51.437Z,5.92
2023-03-12T14:23:57.843Z,5.93
2023-03-12T14:29:15.309Z,5.50
2023-03-12T14:34:26.257Z,5.28
2023-03-12T14:39:43.475Z,4.77
2023-03-12T14:44:54.837Z,4.11
2023-03-12T14:49:57.946Z,4.17
2023-03-12T14:55:08.307Z,4.10
2023-03-12T15:00:23.272Z,4.07
2023-03-12T15:05:26.686Z,4.01
2023-03-12T15:10:30.587Z,3.92
2023-03-12T15:15:32.240Z,3.95
2023-03-12T15:20:35.255Z,4.17
2023-03-12T15:25:37.030Z,3.88
2023-03-12T15:30:39.696Z,4.04
2023-03-12T15:35:44.059Z,4.18
2023-03-12T15:40:50.882Z,4.20
2023-03-12T15:46:04.073Z,4.64
2023-03-12T15:51:36.558Z,5.15
2023-03-12T15:56:38.384Z,5.24
2023-03-12T16:01:49.970Z,5.10
2023-03-12T16:06:53.474Z,5.28
2023-03-12T16:11:56.702Z,5.20
2023-03-12T16:16:59.010Z,4.85
2023-03-12T16:22:00.650Z,5.26
2023-03-12T16:27:05.294Z,5.28
2023-03-12T16:32:16.864Z,5.11
2023-03-12T16:37:18.522Z,5.10
2023-03-12T16:42:21.061Z,5.30
2023-03-12T16:47:22.728Z,5.30
2023-03-12T16:52:26.669Z,5.41
2023-03-12T16:57:35.287Z,5.55
2023-03-12T17:02:36.896Z,5.52
2023-03-12T17:07:38.474Z,5.64
2023-03-12T17:12:41.177Z,5.62
2023-03-12T17:17:43.123Z,5.62
2023-03-12T17:22:44.746Z,5.63
2023-03-12T17:27:46.346Z,5.64
2023-03-12T17:32:49.533Z,5.62
2023-03-12T17:37:51.237Z,5.67
2023-03-12T17:42:52.886Z,5.73
2023-03-12T17:47:54.593Z,5.80
2023-03-12T17:52:56.240Z,5.83
2023-03-12T17:57:58.390Z,5.91
2023-03-12T18:03:00.206Z,5.99
2023-03-12T18:08:01.891Z,6.05
2023-03-12T18:13:03.492Z,6.06
2023-03-12T18:18:05.211Z,6.15
2023-03-12T18:23:07.147Z,6.21
2023-03-12T18:28:08.893Z,6.30
2023-03-12T18:33:10.488Z,6.37
2023-03-12T18:38:12.583Z,6.43
2023-03-12T18:43:14.276Z,6.60
2023-03-12T18:48:15.891Z,6.63
2023-03-12T18:53:17.528Z,6.81
2023-03-12T18:58:19.391Z,6.94
2023-03-12T19:03:21.924Z,6.99
2023-03-12T19:08:23.699Z,7.03
2023-03-12T19:13:25.649Z,7.06
2023-03-12T19:18:28.200Z,7.21
2023-03-12T19:23:29.902Z,7.26
2023-03-12T19:28:32.104Z,7.29
2023-03-12T19:33:33.935Z,7.37
2023-03-12T19:38:35.700Z,7.42
2023-03-12T19:43:37.740Z,7.53
2023-03-12T19:48:39.375Z,7.51
2023-03-12T19:53:41.121Z,7.45
2023-03-12T19:58:42.711Z,7.50
2023-03-12T20:03:44.412Z,7.51
2023-03-12T20:08:49.045Z,7.52
2023-03-12T20:13:50.704Z,7.54
2023-03-12T20:18:52.297Z,7.58
2023-03-12T20:23:56.160Z,7.54
2023-03-12T20:29:02.096Z,7.55
2023-03-12T20:34:03.682Z,7.69
2023-03-12T20:39:05.373Z,7.60
2023-03-12T20:44:07.010Z,7.76
2023-03-12T20:49:08.576Z,7.85
2023-03-12T20:54:10.884Z,7.94
2023-03-12T20:59:12.825Z,7.97
2023-03-12T21:04:14.888Z,8.07
2023-03-12T21:09:16.516Z,8.06
2023-03-12T21:14:18.182Z,8.13
2023-03-12T21:19:19.803Z,8.08
2023-03-12T21:24:21.421Z,8.17
2023-03-12T21:29:23.049Z,8.18
2023-03-12T21:34:24.699Z,8.37
2023-03-12T21:39:27.301Z,8.29
2023-03-12T21:44:29.046Z,8.30
2023-03-12T21:49:32.366Z,8.48
2023-03-12T21:54:35.113Z,8.49
2023-03-12T21:59:36.761Z,8.38
2023-03-12T22:04:38.574Z,8.54
2023-03-12T22:09:40.269Z,8.58
2023-03-12T22:14:41.868Z,8.63
2023-03-12T22:19:43.836Z,8.66
2023-03-12T22:24:45.461Z,8.58
2023-03-12T22:29:47.066Z,8.68
2023-03-12T22:34:49.738Z,8.70
2023-03-12T22:39:51.713Z,8.79
2023-03-12T22:44:53.298Z,8.77
2023-03-12T22:49:57.619Z,8.66
2023-03-12T22:54:59.219Z,8.63
2023-03-12T23:00:00.894Z,8.64
2023-03-12T23:05:04.127Z,8.62
2023-03-12T23:10:06.681Z,8.66
2023-03-12T23:15:08.872Z,8.74
2023-03-12T23:20:11.869Z,8.77
2023-03-12T23:25:13.480Z,8.80
2023-03-12T23:30:15.288Z,8.81
2023-03-12T23:35:17.166Z,8.85
2023-03-12T23:40:19.105Z,8.89
2023-03-12T23:45:20.735Z,8.93
2023-03-12T23:50:22.348Z,8.87
2023-03-12T23:55:23.973Z,8.93
